Time;durP1;ratioP1;P1;durP2;ratioP2;P2;SDS_P1;SDS_P2;PMS_P1;PMS_P2;Temp;Humidity;BMP_temperature;BMP_pressure;BME280_temperature;BME280_humidity;BME280_pressure;Samples;Min_cycle;Max_cycle;Signal;HPM_P1;HPM_P2
2021/07/27 00:00:13;;;;;;;5.45;4.93;;;;;;;23.20;60.25;100657.69;693595;28;23551;-59
2021/07/27 00:00:35;;;;;;;5.35;4.95;;;;;;;23.20;60.16;100665.13;694342;28;36338;-62
2021/07/27 00:00:57;;;;;;;5.30;4.75;;;;;;;23.18;60.28;100662.63;695316;28;47599;-60
2021/07/27 00:01:18;;;;;;;5.53;4.90;;;;;;;23.20;60.08;100665.94;693490;28;23405;-61
2021/07/27 00:01:40;;;;;;;5.40;4.90;;;;;;;23.19;60.17;100657.94;693620;28;21474;-61
2021/07/27 00:02:01;;;;;;;5.63;5.07;;;;;;;23.19;60.20;100663.47;692766;28;34704;-62
2021/07/27 00:02:23;;;;;;;5.82;5.32;;;;;;;23.18;60.21;100665.41;693840;28;21444;-59
2021/07/27 00:02:44;;;;;;;5.57;5.07;;;;;;;23.17;60.00;100657.41;693158;28;43866;-60
2021/07/27 00:03:05;;;;;;;5.57;5.07;;;;;;;23.16;60.16;100662.06;693983;28;23485;-60
2021/07/27 00:03:27;;;;;;;5.40;4.90;;;;;;;23.16;60.23;100659.28;693783;28;21674;-61
2021/07/27 00:03:48;;;;;;;5.43;4.85;;;;;;;23.14;60.46;100663.44;692728;28;46471;-61
2021/07/27 00:04:09;;;;;;;5.45;4.82;;;;;;;23.15;60.35;100657.66;694524;28;5102;-59
2021/07/27 00:04:30;;;;;;;5.43;4.72;;;;;;;23.14;60.12;100657.91;693695;28;23473;-61
2021/07/27 00:04:53;;;;;;;5.60;5.10;;;;;;;23.12;60.55;100658.19;694586;28;1028;-60
2021/07/27 00:05:14;;;;;;;5.40;5.00;;;;;;;23.13;60.55;100661.75;692332;28;42323;-61
2021/07/27 00:05:35;;;;;;;5.40;4.90;;;;;;;23.12;60.33;100652.69;694414;28;1501;-59
2021/07/27 00:05:56;;;;;;;5.78;5.18;;;;;;;23.11;60.55;100644.66;694160;28;23671;-62
2021/07/27 00:06:23;;;;;;;6.63;5.07;;;;;;;23.11;60.63;100653.75;692433;28;61777;-61
2021/07/27 00:06:44;;;;;;;5.50;5.00;;;;;;;23.11;60.56;100658.44;693122;28;46191;-60
2021/07/27 00:07:05;;;;;;;5.63;4.80;;;;;;;23.10;60.52;100660.34;694634;28;1438;-60
2021/07/27 00:07:26;;;;;;;5.68;5.00;;;;;;;23.11;60.44;100655.69;693884;28;21513;-62
2021/07/27 00:07:48;;;;;;;6.07;5.10;;;;;;;23.10;60.72;100649.31;694174;28;22382;-62
2021/07/27 00:08:10;;;;;;;5.53;5.00;;;;;;;23.11;60.43;100662.03;693625;28;23382;-62
2021/07/27 00:08:31;;;;;;;5.65;5.15;;;;;;;23.13;60.57;100653.50;693008;28;45368;-61
2021/07/27 00:08:52;;;;;;;5.65;5.15;;;;;;;23.13;60.52;100653.50;693893;28;19511;-59
2021/07/27 00:09:13;;;;;;;6.05;4.95;;;;;;;23.13;60.45;100659.00;694105;28;19877;-62
2021/07/27 00:09:35;;;;;;;5.57;4.82;;;;;;;23.14;60.57;100647.72;694086;28;22290;-59
2021/07/27 00:09:56;;;;;;;5.18;4.78;;;;;;;23.14;60.33;100650.47;693257;28;46206;-61
2021/07/27 00:10:18;;;;;;;5.30;4.82;;;;;;;23.14;60.58;100650.47;693985;28;1593;-60
2021/07/27 00:10:39;;;;;;;5.95;5.00;;;;;;;23.14;60.46;100655.16;693215;28;22390;-59
2021/07/27 00:11:00;;;;;;;5.13;4.70;;;;;;;23.15;60.35;100656.81;694109;28;24437;-59
2021/07/27 00:11:22;;;;;;;5.85;5.25;;;;;;;23.14;60.60;100657.91;693510;28;22472;-60
2021/07/27 00:11:43;;;;;;;5.82;5.25;;;;;;;23.15;60.49;100656.81;692765;28;44390;-60
2021/07/27 00:12:04;;;;;;;5.57;5.03;;;;;;;23.13;60.53;100654.31;693402;28;23575;-62
2021/07/27 00:12:25;;;;;;;5.53;4.93;;;;;;;23.12;60.46;100654.56;693636;28;22420;-59
2021/07/27 00:12:46;;;;;;;6.97;5.13;;;;;;;23.11;60.48;100651.00;694002;28;21548;-61
2021/07/27 00:13:08;;;;;;;5.30;4.90;;;;;;;23.10;60.39;100649.31;693258;28;45264;-59
2021/07/27 00:13:30;;;;;;;6.70;5.15;;;;;;;23.10;60.56;100651.25;693872;28;25045;-59
2021/07/27 00:13:51;;;;;;;5.63;5.13;;;;;;;23.10;60.39;100648.50;693166;28;47310;-61
2021/07/27 00:14:12;;;;;;;5.93;5.30;;;;;;;23.08;60.71;100648.78;694208;28;17800;-59
2021/07/27 00:14:34;;;;;;;5.68;4.88;;;;;;;23.09;60.56;100652.34;694573;28;3979;-62
2021/07/27 00:14:55;;;;;;;5.38;4.90;;;;;;;23.09;60.60;100649.59;693101;28;47380;-62
2021/07/27 00:15:16;;;;;;;6.57;5.20;;;;;;;23.09;60.81;100652.34;693685;28;21457;-59
2021/07/27 00:15:37;;;;;;;5.53;5.10;;;;;;;23.08;60.81;100650.69;694154;28;22411;-61
2021/07/27 00:15:58;;;;;;;5.60;5.20;;;;;;;23.08;60.79;100651.53;694235;28;15497;-61
2021/07/27 00:16:20;;;;;;;5.50;5.00;;;;;;;23.07;60.84;100649.00;694044;28;13808;-60
2021/07/27 00:16:41;;;;;;;6.72;5.10;;;;;;;23.06;60.57;100650.94;694302;28;949;-61
2021/07/27 00:17:02;;;;;;;5.30;4.90;;;;;;;23.07;60.64;100649.00;693644;28;11325;-61
2021/07/27 00:17:28;;;;;;;5.88;4.80;;;;;;;23.07;60.96;100651.75;694099;28;17374;-58
2021/07/27 00:17:49;;;;;;;5.40;4.95;;;;;;;23.07;60.59;100643.50;688600;28;103623;-59
2021/07/27 00:18:11;;;;;;;5.75;5.15;;;;;;;23.08;60.63;100647.91;690323;28;21333;-60
2021/07/27 00:18:32;;;;;;;5.40;4.90;;;;;;;23.09;60.68;100646.84;690738;28;44432;-61
2021/07/27 00:18:53;;;;;;;5.22;4.80;;;;;;;23.08;60.67;100646.03;694077;28;21125;-59
2021/07/27 00:19:14;;;;;;;5.00;4.60;;;;;;;23.08;60.54;100646.03;693768;28;22134;-62
2021/07/27 00:19:35;;;;;;;5.60;5.07;;;;;;;23.07;60.66;100644.31;694288;28;15556;-59
2021/07/27 00:19:57;;;;;;;5.38;4.72;;;;;;;23.07;60.50;100649.00;694006;28;22403;-62
2021/07/27 00:20:18;;;;;;;5.28;4.78;;;;;;;23.06;60.70;100644.56;692634;28;42434;-60
2021/07/27 00:20:39;;;;;;;5.40;4.95;;;;;;;23.04;60.61;100636.59;694079;28;1734;-60
2021/07/27 00:21:01;;;;;;;5.43;4.93;;;;;;;23.06;60.67;100637.16;694080;28;23529;-58
2021/07/27 00:21:23;;;;;;;5.40;4.93;;;;;;;23.04;60.71;100640.19;694433;28;1111;-59
2021/07/27 00:21:46;;;;;;;6.00;4.80;;;;;;;23.04;60.89;100640.19;693805;28;1137;-61
2021/07/27 00:22:07;;;;;;;5.13;4.60;;;;;;;23.03;61.00;100637.69;693476;28;21809;-62
2021/07/27 00:22:29;;;;;;;7.80;5.28;;;;;;;23.03;60.92;100643.19;692830;28;975;-58
2021/07/27 00:22:50;;;;;;;6.82;4.90;;;;;;;23.01;60.82;100637.94;692444;28;23435;-60
2021/07/27 00:23:11;;;;;;;5.40;4.90;;;;;;;23.00;60.96;100641.78;692460;28;16747;-60
2021/07/27 00:23:34;;;;;;;5.60;5.10;;;;;;;22.99;60.98;100637.41;693216;28;3607;-61
2021/07/27 00:23:55;;;;;;;5.50;5.00;;;;;;;22.99;61.15;100634.63;692150;28;67403;-61
2021/07/27 00:24:16;;;;;;;5.80;5.00;;;;;;;22.99;61.14;100637.41;692851;28;22396;-59
2021/07/27 00:24:37;;;;;;;5.60;5.10;;;;;;;23.01;60.89;100634.38;694113;28;7740;-59
2021/07/27 00:25:00;;;;;;;5.70;5.10;;;;;;;23.01;60.65;100631.63;693811;28;22494;-60
2021/07/27 00:25:21;;;;;;;5.70;5.20;;;;;;;23.00;60.77;100638.22;692826;28;46402;-59
2021/07/27 00:25:42;;;;;;;5.55;5.05;;;;;;;22.98;60.94;100638.47;694447;28;6164;-58
2021/07/27 00:26:10;;;;;;;5.53;4.95;;;;;;;22.99;61.08;100639.28;693519;28;41133;-61
2021/07/27 00:26:32;;;;;;;6.35;5.47;;;;;;;22.96;61.09;100635.16;690209;28;134003;-60
2021/07/27 00:26:54;;;;;;;5.43;5.03;;;;;;;22.96;60.89;100628.81;692682;28;45246;-60
2021/07/27 00:27:15;;;;;;;5.55;5.05;;;;;;;22.94;61.03;100642.00;692901;28;53997;-62
2021/07/27 00:27:37;;;;;;;5.70;5.10;;;;;;;22.92;60.99;100631.25;693657;28;22436;-60
2021/07/27 00:27:58;;;;;;;5.30;4.80;;;;;;;22.91;61.34;100637.84;693148;28;23496;-61
2021/07/27 00:28:19;;;;;;;5.18;4.78;;;;;;;22.92;61.14;100639.53;693794;28;22386;-61
2021/07/27 00:28:41;;;;;;;5.55;5.05;;;;;;;22.92;61.39;100636.78;693667;28;23381;-60
2021/07/27 00:29:03;;;;;;;5.65;4.97;;;;;;;22.92;61.13;100647.78;692290;28;68854;-61
2021/07/27 00:29:24;;;;;;;5.45;4.95;;;;;;;22.93;61.21;100645.84;693658;28;23398;-61
2021/07/27 00:29:45;;;;;;;5.25;4.85;;;;;;;22.91;61.23;100643.34;693376;28;22403;-58
2021/07/27 00:30:07;;;;;;;5.75;5.18;;;;;;;22.90;61.35;100643.63;694051;28;22233;-60
2021/07/27 00:30:29;;;;;;;5.53;5.03;;;;;;;22.89;61.34;100640.03;692394;28;47317;-61
2021/07/27 00:30:50;;;;;;;5.38;4.97;;;;;;;22.87;61.24;100633.97;693118;28;46325;-59
2021/07/27 00:31:16;;;;;;;5.43;4.93;;;;;;;22.89;61.45;100641.97;692628;28;46283;-60
2021/07/27 00:31:37;;;;;;;5.63;5.13;;;;;;;22.89;61.40;100644.72;690572;28;115003;-58
2021/07/27 00:31:58;;;;;;;5.65;5.15;;;;;;;22.88;61.13;100640.31;693431;28;23505;-62
2021/07/27 00:32:22;;;;;;;5.70;5.20;;;;;;;22.87;61.31;100633.97;692368;28;15464;-62
2021/07/27 00:32:49;;;;;;;5.60;5.05;;;;;;;22.88;61.23;100641.13;693670;28;37807;-62
2021/07/27 00:33:10;;;;;;;5.70;5.05;;;;;;;22.87;61.30;100639.50;693731;28;63282;-62
2021/07/27 00:33:31;;;;;;;5.22;4.82;;;;;;;22.85;61.39;100636.13;694891;28;22398;-61
2021/07/27 00:33:53;;;;;;;5.40;4.90;;;;;;;22.83;61.54;100638.34;695889;28;5163;-62
2021/07/27 00:34:14;;;;;;;5.10;4.70;;;;;;;22.82;61.66;100629.25;693448;28;46149;-58
2021/07/27 00:34:35;;;;;;;5.38;4.90;;;;;;;22.82;61.50;100642.16;693538;28;10329;-60
2021/07/27 00:34:56;;;;;;;6.70;5.10;;;;;;;22.81;61.68;100640.53;693502;28;22384;-58
2021/07/27 00:35:19;;;;;;;5.85;5.28;;;;;;;22.80;61.66;100636.09;694058;28;1825;-62
2021/07/27 00:35:40;;;;;;;5.90;5.30;;;;;;;22.79;61.35;100640.78;692369;28;67613;-60
2021/07/27 00:36:08;;;;;;;5.65;5.13;;;;;;;22.79;61.72;100642.69;692668;28;60891;-60
2021/07/27 00:36:30;;;;;;;5.82;5.10;;;;;;;22.78;61.67;100638.28;692452;28;53378;-60
2021/07/27 00:36:51;;;;;;;5.75;5.25;;;;;;;22.76;61.32;100641.31;692863;28;33483;-62
2021/07/27 00:37:16;;;;;;;5.82;5.22;;;;;;;22.78;61.64;100636.38;693647;28;18705;-59
2021/07/27 00:37:42;;;;;;;6.28;5.32;;;;;;;22.77;61.60;100637.44;690091;28;115663;-61
2021/07/27 00:38:12;;;;;;;5.40;5.00;;;;;;;22.79;61.70;100637.19;690059;28;114237;-61
2021/07/27 00:38:33;;;;;;;5.60;5.05;;;;;;;22.79;61.69;100638.03;688976;28;160309;-58
2021/07/27 00:38:56;;;;;;;6.47;5.38;;;;;;;22.79;61.69;100637.19;693938;28;22365;-61
2021/07/27 00:39:17;;;;;;;5.40;4.90;;;;;;;22.78;61.53;100633.63;692698;28;51090;-59
2021/07/27 00:39:38;;;;;;;5.32;4.93;;;;;;;22.79;61.56;100638.03;693964;28;18420;-59
2021/07/27 00:40:00;;;;;;;6.55;5.30;;;;;;;22.79;61.90;100634.44;691039;28;16737;-61
2021/07/27 00:40:21;;;;;;;7.22;5.10;;;;;;;22.79;61.59;100634.44;689878;28;45914;-61
2021/07/27 00:40:44;;;;;;;7.43;5.35;;;;;;;22.77;61.56;100640.19;691217;28;17167;-62
2021/07/27 00:41:05;;;;;;;6.55;5.25;;;;;;;22.76;61.75;100640.47;689376;28;59145;-59
2021/07/27 00:41:28;;;;;;;5.55;5.05;;;;;;;22.76;61.74;100644.06;692465;28;1072;-62
2021/07/27 00:41:49;;;;;;;5.75;5.25;;;;;;;22.75;61.75;100634.13;692577;28;46417;-62
2021/07/27 00:42:10;;;;;;;5.88;5.28;;;;;;;22.77;61.52;100644.88;693524;28;15155;-59
2021/07/27 00:42:32;;;;;;;6.05;5.47;;;;;;;22.75;61.69;100642.41;693040;28;46317;-61
2021/07/27 00:43:02;;;;;;;6.28;5.50;;;;;;;22.75;61.70;100644.31;694122;28;18155;-60
2021/07/27 00:43:24;;;;;;;6.15;5.07;;;;;;;22.76;61.65;100640.47;689827;28;137868;-58
2021/07/27 00:43:45;;;;;;;6.45;5.07;;;;;;;22.76;61.48;100640.47;692729;28;41429;-60
2021/07/27 00:44:06;;;;;;;5.97;5.32;;;;;;;22.77;61.73;100650.38;694471;28;9870;-59
2021/07/27 00:44:27;;;;;;;5.55;4.72;;;;;;;22.77;61.71;100647.63;694067;28;21808;-59
2021/07/27 00:44:48;;;;;;;5.50;5.00;;;;;;;22.77;61.71;100639.38;693854;28;21639;-58
2021/07/27 00:45:11;;;;;;;5.43;5.00;;;;;;;22.76;61.74;100640.47;694244;28;19439;-59
2021/07/27 00:45:33;;;;;;;6.57;5.15;;;;;;;22.74;61.72;100643.47;693122;28;41014;-61
2021/07/27 00:45:54;;;;;;;5.78;5.20;;;;;;;22.73;61.73;100641.84;693760;28;23544;-60
2021/07/27 00:46:15;;;;;;;5.45;5.00;;;;;;;22.72;62.10;100644.84;694119;28;22224;-60
2021/07/27 00:46:37;;;;;;;7.60;5.30;;;;;;;22.68;61.88;100642.63;693709;28;23425;-60
2021/07/27 00:46:58;;;;;;;5.85;5.15;;;;;;;22.68;61.84;100645.38;693292;28;45324;-61
2021/07/27 00:47:19;;;;;;;5.95;5.15;;;;;;;22.67;61.83;100645.63;693837;28;11641;-59
2021/07/27 00:47:40;;;;;;;5.70;5.20;;;;;;;22.65;62.17;100645.06;694097;28;23624;-56
2021/07/27 00:48:03;;;;;;;5.88;5.38;;;;;;;22.63;61.98;100642.56;694187;28;4025;-59
2021/07/27 00:48:25;;;;;;;6.40;5.82;;;;;;;22.63;62.00;100644.47;692331;28;68491;-55
2021/07/27 00:48:46;;;;;;;6.18;5.57;;;;;;;22.62;62.13;100643.66;692638;28;45355;-57
2021/07/27 00:49:08;;;;;;;6.47;5.40;;;;;;;22.62;61.88;100640.91;694191;28;19099;-60
2021/07/27 00:49:29;;;;;;;5.60;5.05;;;;;;;22.63;61.88;100644.47;693772;28;23423;-55
2021/07/27 00:49:51;;;;;;;5.95;4.97;;;;;;;22.63;62.25;100642.56;693590;28;21494;-59
2021/07/27 00:50:13;;;;;;;7.45;5.50;;;;;;;22.62;61.93;100640.91;693038;28;46579;-61
2021/07/27 00:50:35;;;;;;;5.80;5.25;;;;;;;22.62;62.31;100640.91;692468;28;46744;-62
2021/07/27 00:50:56;;;;;;;6.03;4.90;;;;;;;22.62;62.24;100637.31;693060;28;46399;-56
2021/07/27 00:51:17;;;;;;;5.95;5.15;;;;;;;22.62;62.16;100642.84;692613;28;17574;-57
2021/07/27 00:51:40;;;;;;;7.53;5.60;;;;;;;22.61;62.33;100641.97;693934;28;21524;-59
2021/07/27 00:52:01;;;;;;;7.65;5.53;;;;;;;22.60;62.46;100640.34;692455;28;69301;-59
2021/07/27 00:52:23;;;;;;;6.38;5.78;;;;;;;22.61;62.18;100635.66;693565;28;21529;-61
2021/07/27 00:52:44;;;;;;;6.47;5.85;;;;;;;22.62;62.17;100642.84;693121;28;44450;-55
2021/07/27 00:53:05;;;;;;;6.32;5.72;;;;;;;22.60;62.21;100634.84;693080;28;23566;-60
2021/07/27 00:53:27;;;;;;;5.80;5.30;;;;;;;22.61;62.38;100632.91;693676;28;23469;-59
2021/07/27 00:53:48;;;;;;;5.93;5.43;;;;;;;22.60;62.21;100633.97;692565;28;46324;-59
2021/07/27 00:54:11;;;;;;;6.18;5.57;;;;;;;22.60;62.24;100637.59;693794;28;22417;-57
2021/07/27 00:54:32;;;;;;;5.80;5.30;;;;;;;22.57;62.50;100635.34;692368;28;65509;-60
2021/07/27 00:54:54;;;;;;;5.80;5.30;;;;;;;22.57;62.37;100638.09;691787;28;2671;-57
2021/07/27 00:55:16;;;;;;;5.95;5.25;;;;;;;22.55;62.53;100632.00;690589;28;31907;-61
2021/07/27 00:55:39;;;;;;;6.47;5.43;;;;;;;22.54;62.29;100630.38;689878;28;47234;-61
2021/07/27 00:56:00;;;;;;;6.53;5.80;;;;;;;22.55;62.57;100631.19;689707;28;46270;-57
2021/07/27 00:56:21;;;;;;;6.13;5.63;;;;;;;22.55;62.65;100633.94;691539;28;863;-61
2021/07/27 00:56:43;;;;;;;6.10;5.50;;;;;;;22.55;62.84;100629.25;691831;28;24579;-61
2021/07/27 00:57:04;;;;;;;5.93;5.43;;;;;;;22.55;62.75;100639.44;693215;28;46420;-55
2021/07/27 00:57:26;;;;;;;6.72;5.55;;;;;;;22.53;62.70;100634.19;694048;28;13878;-60
2021/07/27 00:57:48;;;;;;;7.05;5.75;;;;;;;22.52;62.62;100632.53;694634;28;1113;-58
2021/07/27 00:58:11;;;;;;;6.43;5.70;;;;;;;22.53;62.74;100634.19;694166;28;4310;-60
2021/07/27 00:58:33;;;;;;;6.32;5.80;;;;;;;22.52;62.92;100626.19;694461;28;1213;-61
2021/07/27 00:58:58;;;;;;;6.38;5.70;;;;;;;22.52;62.72;100629.78;692270;28;61955;-60
2021/07/27 00:59:20;;;;;;;7.65;6.20;;;;;;;22.51;62.73;100625.38;694215;28;998;-60
2021/07/27 00:59:43;;;;;;;6.63;5.90;;;;;;;22.52;62.60;100628.94;694624;28;939;-58
2021/07/27 01:00:12;;;;;;;6.78;6.18;;;;;;;22.52;62.72;100632.53;692573;28;60849;-60
2021/07/27 01:00:34;;;;;;;7.82;5.97;;;;;;;22.52;62.78;100637.22;693631;28;15152;-57
2021/07/27 01:00:56;;;;;;;6.43;5.70;;;;;;;22.51;62.55;100628.13;694205;28;1208;-60
2021/07/27 01:01:19;;;;;;;6.60;5.70;;;;;;;22.52;62.86;100628.94;693163;28;23563;-59
2021/07/27 01:01:41;;;;;;;6.55;5.95;;;;;;;22.52;62.73;100626.19;692606;28;57540;-57
2021/07/27 01:02:02;;;;;;;6.88;5.70;;;;;;;22.50;62.82;100621.78;693226;28;29358;-57
2021/07/27 01:02:23;;;;;;;7.55;6.03;;;;;;;22.52;62.92;100624.28;693642;28;21993;-61
2021/07/27 01:02:44;;;;;;;6.35;5.60;;;;;;;22.53;62.79;100628.69;694139;28;12857;-60
2021/07/27 01:03:07;;;;;;;8.15;5.70;;;;;;;22.54;63.08;100627.63;694049;28;21288;-54
2021/07/27 01:03:29;;;;;;;7.63;5.80;;;;;;;22.55;62.83;100623.75;692896;28;56367;-60
2021/07/27 01:03:50;;;;;;;6.35;5.75;;;;;;;22.56;62.80;100627.34;692727;28;45131;-59
2021/07/27 01:04:11;;;;;;;6.15;5.55;;;;;;;22.56;62.70;100630.94;693882;28;24786;-59
2021/07/27 01:04:32;;;;;;;6.05;5.45;;;;;;;22.56;62.73;100625.41;693632;28;10530;-60
2021/07/27 01:04:54;;;;;;;6.18;5.50;;;;;;;22.56;62.72;100630.94;694278;28;18234;-58
2021/07/27 01:05:16;;;;;;;8.18;5.70;;;;;;;22.55;62.95;100621.00;693023;28;46384;-59
2021/07/27 01:05:37;;;;;;;6.90;5.75;;;;;;;22.55;62.68;100625.69;693469;28;23408;-55
2021/07/27 01:05:58;;;;;;;6.47;5.43;;;;;;;22.54;62.63;100630.38;693753;28;21512;-60
2021/07/27 01:06:20;;;;;;;7.20;5.88;;;;;;;22.55;62.64;100631.19;693121;28;46873;-58
2021/07/27 01:06:41;;;;;;;7.75;6.05;;;;;;;22.53;62.72;100628.69;692933;28;45185;-58
2021/07/27 01:07:02;;;;;;;8.40;5.88;;;;;;;22.53;62.74;100625.94;693830;28;24436;-57
2021/07/27 01:07:25;;;;;;;7.70;6.03;;;;;;;22.53;62.64;100625.94;693399;28;23389;-58
2021/07/27 01:07:46;;;;;;;7.90;6.00;;;;;;;22.54;63.02;100629.50;693369;28;45011;-57
2021/07/27 01:08:08;;;;;;;7.03;5.88;;;;;;;22.53;62.68;100628.69;693900;28;11269;-56
2021/07/27 01:08:29;;;;;;;6.70;6.00;;;;;;;22.52;62.80;100621.53;694099;28;1009;-60
2021/07/27 01:08:51;;;;;;;6.45;5.85;;;;;;;22.53;62.56;100633.38;693326;28;23433;-57
2021/07/27 01:09:13;;;;;;;6.20;5.63;;;;;;;22.52;62.77;100627.03;693410;28;35138;-61
2021/07/27 01:09:34;;;;;;;5.97;5.47;;;;;;;22.53;62.84;100622.38;693874;28;23279;-59
2021/07/27 01:09:55;;;;;;;6.85;5.85;;;;;;;22.53;62.62;100627.88;694742;28;880;-60
2021/07/27 01:10:17;;;;;;;7.07;6.13;;;;;;;22.53;62.84;100627.88;693877;28;22494;-56
2021/07/27 01:10:38;;;;;;;7.22;6.13;;;;;;;22.53;62.72;100627.88;692472;28;47306;-60
2021/07/27 01:10:59;;;;;;;8.68;6.35;;;;;;;22.52;62.92;100626.19;693786;28;23696;-60
2021/07/27 01:11:22;;;;;;;7.07;6.38;;;;;;;22.50;62.71;100630.03;693852;28;1978;-62
2021/07/27 01:11:44;;;;;;;7.22;6.35;;;;;;;22.50;62.71;100629.22;692969;28;33390;-59
2021/07/27 01:12:06;;;;;;;7.70;6.35;;;;;;;22.48;62.96;100629.47;693558;28;36914;-59
2021/07/27 01:12:27;;;;;;;7.43;6.40;;;;;;;22.49;62.84;100630.28;692824;28;46473;-58
2021/07/27 01:12:48;;;;;;;7.32;6.22;;;;;;;22.50;62.87;100631.97;694289;28;17322;-58
2021/07/27 01:13:10;;;;;;;6.88;6.20;;;;;;;22.49;62.80;100628.38;694246;28;11881;-60
2021/07/27 01:13:31;;;;;;;6.53;5.82;;;;;;;22.49;62.93;100627.53;693423;28;36776;-62
2021/07/27 01:14:00;;;;;;;7.25;6.15;;;;;;;22.48;62.94;100621.22;692315;28;61552;-58
2021/07/27 01:14:22;;;;;;;6.85;5.97;;;;;;;22.48;63.02;100631.41;694554;28;933;-59
2021/07/27 01:14:44;;;;;;;7.13;6.43;;;;;;;22.48;63.06;100628.66;694256;28;1636;-60
2021/07/27 01:15:07;;;;;;;6.57;5.88;;;;;;;22.45;62.86;100624.47;693219;28;24122;-56
2021/07/27 01:15:29;;;;;;;6.72;6.13;;;;;;;22.44;62.93;100624.75;692768;28;70013;-62
2021/07/27 01:15:50;;;;;;;7.25;5.85;;;;;;;22.43;63.12;100632.19;694238;28;46955;-61
2021/07/27 01:16:11;;;;;;;8.70;6.10;;;;;;;22.41;63.08;100626.09;694773;28;23527;-57
2021/07/27 01:16:35;;;;;;;8.52;6.40;;;;;;;22.42;63.38;100629.69;694716;28;21213;-61
2021/07/27 01:16:56;;;;;;;7.30;5.97;;;;;;;22.38;63.29;100626.63;692871;28;66041;-58
2021/07/27 01:17:18;;;;;;;7.07;6.32;;;;;;;22.40;63.40;100621.69;694523;28;23417;-60
2021/07/27 01:17:39;;;;;;;6.68;6.07;;;;;;;22.41;63.35;100622.50;693021;28;45038;-59
2021/07/27 01:18:04;;;;;;;6.90;6.20;;;;;;;22.42;63.26;100625.00;693170;28;21240;-57
2021/07/27 01:18:29;;;;;;;7.95;6.25;;;;;;;22.41;63.31;100630.75;689671;28;128634;-60
2021/07/27 01:18:58;;;;;;;8.40;6.15;;;;;;;22.41;63.52;100623.31;686076;28;137801;-58
2021/07/27 01:19:31;;;;;;;6.43;5.82;;;;;;;22.40;63.35;100623.59;687844;28;112471;-58
2021/07/27 01:19:57;;;;;;;6.38;5.78;;;;;;;22.38;63.19;100618.38;688942;28;125926;-60
2021/07/27 01:20:25;;;;;;;6.38;5.80;;;;;;;22.37;63.46;100630.47;689574;28;138038;-58
2021/07/27 01:20:55;;;;;;;7.13;6.20;;;;;;;22.36;63.41;100622.47;690185;28;138800;-60
2021/07/27 01:37:44;;;;;;;6.65;6.10;;;;;;;22.14;64.49;100632.34;689400;28;62241;-57
2021/07/27 01:38:15;;;;;;;7.32;6.57;;;;;;;22.14;64.41;100634.28;687231;28;133330;-59
2021/07/27 01:39:22;;;;;;;8.00;6.63;;;;;;;22.19;64.12;100630.75;686268;28;128286;-58
2021/07/27 01:39:45;;;;;;;7.65;6.70;;;;;;;22.16;64.24;100632.09;687089;28;138567;-60
2021/07/27 01:40:07;;;;;;;8.35;6.40;;;;;;;22.17;64.32;100635.69;690629;28;44456;-59
2021/07/27 01:40:29;;;;;;;6.78;6.10;;;;;;;22.16;64.33;100636.78;690681;28;1476;-58
2021/07/27 01:41:00;;;;;;;8.00;6.18;;;;;;;22.14;64.45;100637.03;689972;28;59336;-61
2021/07/27 01:42:11;;;;;;;9.10;6.07;;;;;;;22.14;64.50;100640.59;688907;28;61453;-57
2021/07/27 01:42:38;;;;;;;6.88;6.25;;;;;;;22.14;64.43;100632.34;687382;28;130880;-62
2021/07/27 01:43:01;;;;;;;6.75;6.05;;;;;;;22.16;64.62;100645.03;689842;28;61684;-57
2021/07/27 01:43:28;;;;;;;6.90;6.20;;;;;;;22.14;64.35;100637.03;690038;28;47470;-61
2021/07/27 01:43:50;;;;;;;8.82;6.45;;;;;;;22.13;64.49;100643.59;687124;28;129840;-59
2021/07/27 01:44:16;;;;;;;7.60;6.40;;;;;;;22.13;64.52;100641.72;689734;28;61022;-60
2021/07/27 01:44:44;;;;;;;7.45;6.50;;;;;;;22.12;64.44;100640.03;691256;28;21887;-61
2021/07/27 01:45:20;;;;;;;8.07;6.38;;;;;;;22.11;64.74;100645.78;687157;28;137573;-55
2021/07/27 01:45:41;;;;;;;6.97;6.28;;;;;;;22.09;64.55;100646.06;683551;28;138320;-58
2021/07/27 01:46:03;;;;;;;7.10;6.40;;;;;;;22.08;64.56;100643.56;691763;28;954;-61
2021/07/27 01:46:25;;;;;;;8.63;6.28;;;;;;;22.10;64.80;100646.88;691426;28;15281;-59
2021/07/27 01:46:51;;;;;;;8.57;6.20;;;;;;;22.10;64.69;100644.13;690053;28;44819;-61
2021/07/27 01:47:14;;;;;;;6.93;6.32;;;;;;;22.09;64.70;100640.56;688840;28;75444;-62
2021/07/27 01:47:35;;;;;;;7.47;6.13;;;;;;;22.08;64.66;100640.81;690439;28;45673;-60
2021/07/27 01:47:56;;;;;;;6.70;6.10;;;;;;;22.10;64.55;100636.72;691545;28;12854;-56
2021/07/27 01:48:18;;;;;;;7.38;6.68;;;;;;;22.09;64.74;100645.22;691045;28;22122;-58
2021/07/27 01:48:39;;;;;;;8.25;6.65;;;;;;;22.09;64.61;100640.56;689251;28;66576;-55
2021/07/27 01:49:00;;;;;;;8.00;6.20;;;;;;;22.09;64.81;100646.06;690630;28;23435;-58
2021/07/27 01:49:22;;;;;;;7.68;6.47;;;;;;;22.09;64.70;100636.97;690125;28;46461;-58
2021/07/27 01:49:44;;;;;;;7.28;6.57;;;;;;;22.10;64.61;100638.63;690606;28;18862;-60
2021/07/27 01:50:06;;;;;;;7.35;6.65;;;;;;;22.09;64.59;100632.31;689055;28;69424;-57
2021/07/27 01:50:27;;;;;;;7.85;6.20;;;;;;;22.10;64.51;100636.72;689507;28;46407;-59
2021/07/27 01:50:48;;;;;;;7.05;6.30;;;;;;;22.09;64.61;100632.31;690344;28;18569;-60
2021/07/27 01:51:23;;;;;;;8.70;6.70;;;;;;;22.07;64.73;100639.13;690782;28;23505;-59
2021/07/27 01:51:45;;;;;;;7.05;6.18;;;;;;;22.06;64.80;100634.75;686071;28;134015;-61
2021/07/27 01:52:10;;;;;;;8.77;6.35;;;;;;;22.05;64.88;100630.31;688420;28;69530;-60
2021/07/27 01:52:33;;;;;;;7.20;6.10;;;;;;;22.05;64.90;100625.69;687663;28;115526;-59
2021/07/27 01:52:58;;;;;;;6.80;6.10;;;;;;;22.05;64.83;100633.91;690166;28;46357;-60
2021/07/27 01:53:26;;;;;;;6.95;6.25;;;;;;;22.05;64.92;100630.31;687554;28;115817;-57
2021/07/27 01:53:49;;;;;;;7.00;6.30;;;;;;;22.05;64.80;100630.31;685953;28;144392;-57
2021/07/27 01:54:15;;;;;;;7.95;6.43;;;;;;;22.04;64.81;100626.75;690936;28;14941;-62
2021/07/27 01:54:57;;;;;;;8.27;6.78;;;;;;;22.04;65.07;100629.50;688100;28;92360;-56
2021/07/27 01:55:20;;;;;;;6.53;5.93;;;;;;;22.04;65.05;100625.94;686892;28;138517;-61
2021/07/27 01:55:41;;;;;;;6.57;5.97;;;;;;;22.03;65.03;100630.56;688883;28;70202;-59
2021/07/27 01:56:03;;;;;;;6.60;6.10;;;;;;;22.04;64.97;100635.00;690357;28;22417;-61
2021/07/27 01:56:25;;;;;;;7.32;6.30;;;;;;;22.04;64.97;100635.00;688512;28;1223;-60
2021/07/27 01:56:47;;;;;;;7.03;6.32;;;;;;;22.04;65.07;100632.25;688201;28;23553;-57
2021/07/27 01:57:09;;;;;;;7.13;6.43;;;;;;;22.04;64.94;100636.94;687075;28;44039;-61
2021/07/27 01:57:38;;;;;;;8.70;6.53;;;;;;;22.03;65.01;100636.06;686814;28;60620;-60
2021/07/27 01:58:00;;;;;;;7.78;6.30;;;;;;;22.05;65.04;100635.81;690416;28;915;-60
2021/07/27 01:58:22;;;;;;;7.03;5.97;;;;;;;22.04;64.95;100637.75;690600;28;4286;-60
2021/07/27 01:58:52;;;;;;;7.07;6.47;;;;;;;22.05;64.80;100633.91;689285;28;61635;-58
2021/07/27 01:59:13;;;;;;;6.50;5.90;;;;;;;22.04;64.88;100631.44;690469;28;23458;-61
2021/07/27 01:59:36;;;;;;;7.00;6.18;;;;;;;22.04;64.85;100639.69;690547;28;37981;-59
2021/07/27 02:00:08;;;;;;;7.10;6.40;;;;;;;22.01;64.92;100632.75;688727;28;70119;-59
2021/07/27 02:00:30;;;;;;;7.10;6.40;;;;;;;22.00;65.03;100631.09;686691;28;138252;-58
2021/07/27 02:00:51;;;;;;;7.50;6.75;;;;;;;21.99;65.06;100640.44;690262;28;45323;-57
2021/07/27 02:01:12;;;;;;;8.13;6.60;;;;;;;21.98;65.17;100632.44;690287;28;18925;-62
2021/07/27 02:01:34;;;;;;;7.57;6.60;;;;;;;21.96;65.29;100633.53;691443;28;17352;-55
2021/07/27 02:01:56;;;;;;;8.95;6.32;;;;;;;21.96;65.13;100640.94;690585;28;30665;-60
2021/07/27 02:02:17;;;;;;;6.93;6.22;;;;;;;21.95;65.46;100629.09;690461;28;19727;-59
2021/07/27 02:02:38;;;;;;;7.28;6.38;;;;;;;21.95;65.12;100642.03;691070;28;22481;-61
2021/07/27 02:03:00;;;;;;;8.20;6.28;;;;;;;21.96;65.20;100639.03;690760;28;21916;-58
2021/07/27 02:03:22;;;;;;;7.22;6.30;;;;;;;21.96;65.34;100635.47;690062;28;46500;-60
2021/07/27 02:03:43;;;;;;;7.10;6.32;;;;;;;21.94;65.17;100629.34;691324;28;21639;-62
2021/07/27 02:04:08;;;;;;;6.90;6.20;;;;;;;21.97;65.16;100634.34;687019;28;129646;-59